createdAt,value
2022-09-30T00:01:39.886Z,7.50
2022-09-30T00:06:35.290Z,6.90
2022-09-30T00:11:31.242Z,5.38
2022-09-30T00:16:25.109Z,8.27
2022-09-30T00:21:19.822Z,6.95
2022-09-30T00:26:15.162Z,6.43
2022-09-30T00:31:10.216Z,4.50
2022-09-30T00:36:04.164Z,5.43
2022-09-30T00:40:59.815Z,4.68
2022-09-30T00:45:57.988Z,4.72
2022-09-30T00:50:55.631Z,4.38
2022-09-30T00:55:56.059Z,4.78
2022-09-30T01:00:52.797Z,5.75
2022-09-30T01:05:46.041Z,6.80
2022-09-30T01:10:39.245Z,5.72
2022-09-30T01:15:52.381Z,5.22
2022-09-30T01:21:14.436Z,3.92
2022-09-30T01:26:36.377Z,4.57
2022-09-30T01:31:44.412Z,4.63
2022-09-30T01:36:54.437Z,4.88
2022-09-30T01:41:54.773Z,5.45
2022-09-30T01:46:56.298Z,6.07
2022-09-30T01:51:56.826Z,4.82
2022-09-30T01:56:54.058Z,6.13
2022-09-30T02:01:55.172Z,4.57
2022-09-30T02:06:53.360Z,3.92
2022-09-30T02:11:46.526Z,4.32
2022-09-30T02:16:42.000Z,4.82
2022-09-30T02:21:41.424Z,5.15
2022-09-30T02:26:38.813Z,6.13
2022-09-30T02:31:35.509Z,5.88
2022-09-30T02:36:33.447Z,7.13
2022-09-30T02:41:32.047Z,6.80
2022-09-30T02:46:33.312Z,6.57
2022-09-30T02:51:40.149Z,5.15
2022-09-30T02:56:50.372Z,4.20
2022-09-30T03:01:44.835Z,5.47
2022-09-30T03:06:38.841Z,4.25
2022-09-30T03:11:34.039Z,8.05
2022-09-30T03:16:41.782Z,5.70
2022-09-30T03:21:46.915Z,6.72
2022-09-30T03:26:53.652Z,4.35
2022-09-30T03:31:58.918Z,5.28
2022-09-30T03:37:04.355Z,6.68
2022-09-30T03:42:09.737Z,7.93
2022-09-30T03:47:07.479Z,5.45
2022-09-30T03:52:06.201Z,8.30
2022-09-30T03:57:05.332Z,5.80
2022-09-30T04:01:58.626Z,9.27
2022-09-30T04:06:51.891Z,10.32
2022-09-30T04:11:45.169Z,6.25
2022-09-30T04:16:39.973Z,9.13
2022-09-30T04:21:33.263Z,7.35
2022-09-30T04:26:26.587Z,10.60
2022-09-30T04:31:21.537Z,10.52
2022-09-30T04:36:16.479Z,8.10
2022-09-30T04:41:14.266Z,12.25
2022-09-30T04:46:07.977Z,14.50
2022-09-30T04:51:01.352Z,12.10
2022-09-30T04:56:01.562Z,12.45
2022-09-30T05:05:56.543Z,12.75
2022-09-30T05:10:57.429Z,9.50
2022-09-30T05:15:52.559Z,6.60
2022-09-30T05:20:45.716Z,11.00
2022-09-30T05:25:38.871Z,16.98
2022-09-30T05:30:32.063Z,9.80
2022-09-30T05:35:26.815Z,10.13
2022-09-30T05:40:20.066Z,8.95
2022-09-30T05:45:13.345Z,10.50
2022-09-30T05:50:07.388Z,12.65
2022-09-30T05:55:02.135Z,15.50
2022-09-30T05:59:55.437Z,17.98
2022-09-30T06:04:48.605Z,14.20
2022-09-30T06:09:41.942Z,22.00
2022-09-30T06:14:36.886Z,19.17
2022-09-30T06:19:31.638Z,15.35
2022-09-30T06:24:24.997Z,11.43
2022-09-30T06:29:19.762Z,13.10
2022-09-30T06:34:16.990Z,13.88
2022-09-30T06:39:13.522Z,19.23
2022-09-30T06:44:08.020Z,15.32
2022-09-30T06:49:12.150Z,13.93
2022-09-30T06:54:09.248Z,15.95
2022-09-30T06:59:02.528Z,16.80
2022-09-30T07:03:58.160Z,15.85
2022-09-30T07:08:51.813Z,12.63
2022-09-30T07:13:47.201Z,9.93
2022-09-30T07:18:42.397Z,9.07
2022-09-30T07:23:35.658Z,8.38
2022-09-30T07:28:31.498Z,13.05
2022-09-30T07:33:31.320Z,8.23
2022-09-30T07:43:21.781Z,11.60
2022-09-30T07:48:35.057Z,11.55
2022-09-30T07:53:29.608Z,8.43
2022-09-30T07:58:23.085Z,9.32
2022-09-30T08:03:16.503Z,12.15
2022-09-30T08:08:09.618Z,11.40
2022-09-30T08:13:06.394Z,10.48
2022-09-30T08:17:59.652Z,12.55
2022-09-30T08:22:54.673Z,9.32
2022-09-30T08:27:47.847Z,9.65
2022-09-30T08:32:42.456Z,11.32
2022-09-30T08:37:35.686Z,5.95
2022-09-30T08:42:49.660Z,6.20
2022-09-30T08:47:53.459Z,5.15
2022-09-30T08:52:49.547Z,4.07
2022-09-30T08:57:47.664Z,5.25
2022-09-30T09:02:50.279Z,8.48
2022-09-30T09:07:54.265Z,4.65
2022-09-30T09:12:57.450Z,5.75
2022-09-30T09:18:41.811Z,6.85
2022-09-30T09:23:36.646Z,6.60
2022-09-30T09:28:37.796Z,8.50
2022-09-30T09:33:33.523Z,5.00
2022-09-30T09:38:36.098Z,4.72
2022-09-30T09:43:44.166Z,5.80
2022-09-30T09:48:37.411Z,6.28
2022-09-30T09:53:49.230Z,5.45
2022-09-30T09:59:11.402Z,5.35
2022-09-30T10:04:11.184Z,5.60
2022-09-30T10:09:07.546Z,5.40
2022-09-30T10:14:02.548Z,4.63
2022-09-30T10:18:56.208Z,4.68
2022-09-30T10:23:49.812Z,4.15
2022-09-30T10:28:47.930Z,3.58
2022-09-30T10:33:47.063Z,3.33
2022-09-30T10:38:53.597Z,4.55
2022-09-30T10:43:53.722Z,3.45
2022-09-30T10:48:51.172Z,6.63
2022-09-30T10:53:45.531Z,4.53
2022-09-30T10:58:47.725Z,6.25
2022-09-30T11:03:49.845Z,5.75
2022-09-30T11:08:50.146Z,3.38
2022-09-30T11:13:49.738Z,8.05
2022-09-30T11:18:50.800Z,4.00
2022-09-30T11:23:50.397Z,4.10
2022-09-30T11:29:00.695Z,5.22
2022-09-30T11:34:23.944Z,4.78
2022-09-30T11:39:47.604Z,3.63
2022-09-30T11:44:44.440Z,4.68
2022-09-30T11:50:06.962Z,4.68
2022-09-30T11:55:31.289Z,3.70
2022-09-30T12:00:25.038Z,6.47
2022-09-30T12:05:21.705Z,5.93
2022-09-30T12:10:23.816Z,7.18
2022-09-30T12:15:21.591Z,5.50
2022-09-30T12:20:22.246Z,4.63
2022-09-30T12:25:21.767Z,3.58
2022-09-30T12:30:20.538Z,6.45
2022-09-30T12:35:33.329Z,6.95
2022-09-30T12:40:53.005Z,5.85
2022-09-30T12:46:15.983Z,3.00
2022-09-30T12:51:22.647Z,4.50
2022-09-30T12:56:20.202Z,3.47
2022-09-30T13:01:16.981Z,3.63
2022-09-30T13:06:10.539Z,4.90
2022-09-30T13:11:08.038Z,4.30
2022-09-30T13:16:06.661Z,6.00
2022-09-30T13:21:20.227Z,6.63
2022-09-30T13:26:45.630Z,3.75
2022-09-30T13:32:07.966Z,3.22
2022-09-30T13:37:03.030Z,5.80
2022-09-30T13:42:11.951Z,8.32
2022-09-30T13:47:19.213Z,5.95
2022-09-30T13:52:35.343Z,6.90
2022-09-30T13:57:36.633Z,6.75
2022-09-30T14:03:08.383Z,6.72
2022-09-30T14:08:35.033Z,7.10
2022-09-30T14:13:47.369Z,8.18
2022-09-30T14:19:11.328Z,9.10
2022-09-30T14:24:12.303Z,12.55
2022-09-30T14:29:13.906Z,10.68
2022-09-30T14:34:12.461Z,8.40
2022-09-30T14:39:14.528Z,12.85
2022-09-30T14:44:08.960Z,8.07
2022-09-30T14:49:06.834Z,7.60
2022-09-30T14:54:02.352Z,6.60
2022-09-30T14:58:58.115Z,9.55
2022-09-30T15:03:55.754Z,5.28
2022-09-30T15:08:50.829Z,6.47
2022-09-30T15:13:46.251Z,8.80
2022-09-30T15:18:47.372Z,7.35
2022-09-30T15:23:43.963Z,4.72
2022-09-30T15:28:38.301Z,5.20
2022-09-30T15:33:34.470Z,4.60
2022-09-30T15:38:34.705Z,5.97
2022-09-30T15:43:35.807Z,7.82
2022-09-30T15:48:36.439Z,4.03
2022-09-30T15:53:32.805Z,5.50
2022-09-30T15:58:33.948Z,4.93
2022-09-30T16:03:29.542Z,14.20
2022-09-30T16:08:28.744Z,9.80
2022-09-30T16:13:26.892Z,13.35
2022-09-30T16:18:24.918Z,11.57
2022-09-30T16:23:31.481Z,12.25
2022-09-30T16:28:27.868Z,10.43
2022-09-30T16:33:23.925Z,11.57
2022-09-30T16:38:20.852Z,6.55
2022-09-30T16:43:27.144Z,10.55
2022-09-30T16:48:21.942Z,5.93
2022-09-30T16:53:15.561Z,9.80
2022-09-30T16:58:13.434Z,5.47
2022-09-30T17:03:08.603Z,5.55
2022-09-30T17:08:02.760Z,5.60
2022-09-30T17:12:56.587Z,4.97
2022-09-30T17:17:50.541Z,6.82
2022-09-30T17:22:46.182Z,8.73
2022-09-30T17:27:40.066Z,9.23
2022-09-30T17:32:33.550Z,3.95
2022-09-30T17:37:27.751Z,7.70
2022-09-30T17:43:01.999Z,6.40
2022-09-30T17:47:55.507Z,5.68
2022-09-30T17:52:51.812Z,7.35
2022-09-30T17:57:53.330Z,8.98
2022-09-30T18:02:54.684Z,10.75
2022-09-30T18:07:48.624Z,9.63
2022-09-30T18:12:42.516Z,7.18
2022-09-30T18:17:37.271Z,10.43
2022-09-30T18:22:33.128Z,15.48
2022-09-30T18:27:28.100Z,10.52
2022-09-30T18:32:21.555Z,12.38
2022-09-30T18:37:16.415Z,10.13
2022-09-30T18:42:09.771Z,11.73
2022-09-30T18:47:03.224Z,8.65
2022-09-30T18:51:56.543Z,7.35
2022-09-30T18:56:56.588Z,12.05
2022-09-30T19:01:49.984Z,15.82
2022-09-30T19:06:45.238Z,10.27
2022-09-30T19:11:42.800Z,11.82
2022-09-30T19:16:38.906Z,6.38
2022-09-30T19:21:35.394Z,9.35
2022-09-30T19:26:30.381Z,7.10
2022-09-30T19:31:24.664Z,6.63
2022-09-30T19:36:19.432Z,10.65
2022-09-30T19:41:13.984Z,11.43
2022-09-30T19:46:10.663Z,16.30
2022-09-30T19:51:07.404Z,12.75
2022-09-30T19:56:08.023Z,16.25
2022-09-30T20:01:02.422Z,15.60
2022-09-30T20:06:03.834Z,11.38
2022-09-30T20:11:05.147Z,13.90
2022-09-30T20:16:03.872Z,9.40
2022-09-30T20:20:57.566Z,11.38
2022-09-30T20:25:52.976Z,8.88
2022-09-30T20:30:48.874Z,13.18
2022-09-30T20:35:42.155Z,9.10
2022-09-30T20:40:36.114Z,11.10
2022-09-30T20:45:29.805Z,7.95
2022-09-30T20:50:36.013Z,9.23
2022-09-30T20:55:31.637Z,8.85
2022-09-30T21:00:25.158Z,9.35
2022-09-30T21:05:28.033Z,9.18
2022-09-30T21:10:23.069Z,6.40
2022-09-30T21:15:20.633Z,7.15
2022-09-30T21:20:17.060Z,9.02
2022-09-30T21:25:13.232Z,6.43
2022-09-30T22:24:29.915Z,6.25
2022-09-30T22:29:23.248Z,4.80
2022-09-30T22:34:33.962Z,6.03
2022-09-30T22:39:28.853Z,6.05
2022-09-30T22:44:25.767Z,8.27
2022-09-30T22:49:20.185Z,5.18
2022-09-30T22:54:13.613Z,6.70
2022-09-30T22:59:08.383Z,5.80
2022-09-30T23:04:01.815Z,5.88
2022-09-30T23:08:56.097Z,7.13
2022-09-30T23:13:49.418Z,5.00
2022-09-30T23:18:46.407Z,4.40
2022-09-30T23:23:40.622Z,5.57
2022-09-30T23:28:34.181Z,6.15
2022-09-30T23:33:27.496Z,6.63
2022-09-30T23:38:22.442Z,5.63
2022-09-30T23:43:16.176Z,5.68
2022-09-30T23:48:09.815Z,5.00
2022-09-30T23:53:03.265Z,5.63
2022-09-30T23:57:58.024Z,5.30
